createdAt,value
2022-12-23T00:01:13.606Z,99.79
2022-12-23T00:03:40.203Z,99.88
2022-12-23T00:06:12.149Z,99.89
2022-12-23T00:08:38.649Z,99.67
2022-12-23T00:11:06.880Z,99.64
2022-12-23T00:13:52.033Z,99.62
2022-12-23T00:16:18.639Z,99.34
2022-12-23T00:18:45.150Z,99.57
2022-12-23T00:21:14.055Z,99.55
2022-12-23T00:23:43.752Z,99.72
2022-12-23T00:26:15.879Z,99.36
2022-12-23T00:28:42.560Z,99.25
2022-12-23T00:31:09.846Z,99.44
2022-12-23T00:33:38.802Z,99.27
2022-12-23T00:36:23.385Z,99.48
2022-12-23T00:39:09.135Z,99.58
2022-12-23T00:41:54.035Z,99.80
2022-12-23T00:44:20.697Z,99.60
2022-12-23T00:46:47.127Z,99.88
2022-12-23T00:49:33.250Z,99.62
2022-12-23T00:52:00.159Z,99.62
2022-12-23T00:54:26.725Z,99.22
2022-12-23T00:56:53.737Z,99.27
2022-12-23T00:59:20.135Z,99.37
2022-12-23T01:02:05.529Z,99.19
2022-12-23T01:04:50.966Z,99.51
2022-12-23T01:07:19.862Z,99.16
2022-12-23T01:09:46.310Z,99.14
2022-12-23T01:12:12.730Z,99.28
2022-12-23T01:14:39.188Z,99.02
2022-12-23T01:17:07.098Z,98.74
2022-12-23T01:19:33.984Z,98.81
2022-12-23T01:22:00.344Z,99.38
2022-12-23T01:24:32.670Z,99.08
2022-12-23T01:26:59.552Z,99.02
2022-12-23T01:29:26.253Z,98.90
2022-12-23T01:31:52.759Z,98.88
2022-12-23T01:34:19.260Z,98.76
2022-12-23T01:36:45.774Z,98.86
2022-12-23T01:39:12.191Z,98.81
2022-12-23T01:41:57.415Z,98.60
2022-12-23T01:44:52.680Z,98.61
2022-12-23T01:47:24.776Z,98.56
2022-12-23T01:49:54.722Z,98.50
2022-12-23T01:52:21.230Z,98.32
2022-12-23T01:54:47.875Z,98.90
2022-12-23T01:57:14.399Z,98.71
2022-12-23T02:00:13.548Z,98.49
2022-12-23T02:02:59.626Z,98.25
2022-12-23T02:05:26.333Z,98.34
2022-12-23T02:08:11.919Z,98.09
2022-12-23T02:11:02.554Z,98.06
2022-12-23T02:14:03.221Z,97.84
2022-12-23T02:16:33.936Z,98.02
2022-12-23T02:19:10.224Z,98.20
2022-12-23T02:22:14.033Z,97.78
2022-12-23T02:25:04.883Z,97.88
2022-12-23T02:27:49.745Z,97.96
2022-12-23T02:30:22.196Z,98.07
2022-12-23T02:33:03.747Z,97.92
2022-12-23T02:35:44.218Z,98.08
2022-12-23T02:38:25.766Z,97.80
2022-12-23T02:41:16.940Z,97.97
2022-12-23T02:44:04.492Z,97.78
2022-12-23T02:46:44.834Z,97.96
2022-12-23T02:49:15.079Z,97.88
2022-12-23T02:51:44.675Z,98.02
2022-12-23T02:54:14.343Z,98.31
2022-12-23T02:56:43.470Z,98.12
2022-12-23T02:59:16.552Z,98.26
2022-12-23T03:01:44.640Z,98.48
2022-12-23T03:04:11.164Z,98.41
2022-12-23T03:06:43.548Z,98.06
2022-12-23T03:09:29.928Z,98.21
2022-12-23T03:12:27.302Z,98.16
2022-12-23T03:15:02.321Z,98.41
2022-12-23T03:17:35.272Z,98.45
2022-12-23T03:20:15.271Z,98.22
2022-12-23T03:23:02.151Z,97.90
2022-12-23T03:25:34.367Z,98.10
2022-12-23T03:28:10.369Z,98.24
2022-12-23T03:30:39.534Z,97.94
2022-12-23T03:33:22.678Z,98.24
2022-12-23T03:35:53.727Z,97.81
2022-12-23T03:38:21.555Z,98.03
2022-12-23T03:40:50.687Z,98.13
2022-12-23T03:43:27.650Z,97.63
2022-12-23T03:45:58.146Z,98.01
2022-12-23T03:48:37.292Z,97.94
2022-12-23T03:51:09.598Z,97.80
2022-12-23T03:53:46.819Z,97.93
2022-12-23T03:56:21.188Z,97.73
2022-12-23T03:58:48.885Z,97.76
2022-12-23T04:01:38.169Z,97.71
2022-12-23T04:04:11.944Z,97.41
2022-12-23T04:07:27.994Z,97.39
2022-12-23T04:09:54.712Z,97.66
2022-12-23T04:12:23.250Z,97.83
2022-12-23T04:14:50.048Z,97.73
2022-12-23T04:17:16.701Z,97.76
2022-12-23T04:19:45.566Z,97.64
2022-12-23T04:22:13.118Z,97.48
2022-12-23T04:24:39.785Z,97.54
2022-12-23T04:27:07.021Z,97.71
2022-12-23T04:29:36.097Z,97.60
2022-12-23T04:32:02.465Z,97.74
2022-12-23T04:34:28.899Z,97.25
2022-12-23T04:36:55.465Z,97.38
2022-12-23T04:39:22.110Z,97.23
2022-12-23T04:41:48.734Z,97.38
2022-12-23T04:44:15.172Z,97.34
2022-12-23T04:46:42.000Z,97.23
2022-12-23T04:49:08.657Z,97.26
2022-12-23T04:51:35.070Z,97.32
2022-12-23T04:54:01.513Z,97.21
2022-12-23T04:56:27.978Z,97.22
2022-12-23T04:58:54.513Z,96.84
2022-12-23T05:01:20.993Z,96.58
2022-12-23T05:03:47.490Z,96.75
2022-12-23T05:06:13.945Z,96.93
2022-12-23T05:08:40.304Z,97.12
2022-12-23T05:11:07.413Z,96.39
2022-12-23T05:13:33.841Z,96.48
2022-12-23T05:16:00.351Z,96.27
2022-12-23T05:18:26.849Z,96.16
2022-12-23T05:20:53.242Z,95.98
2022-12-23T05:23:19.608Z,96.04
2022-12-23T05:25:51.065Z,95.34
2022-12-23T05:28:17.498Z,95.61
2022-12-23T05:30:44.141Z,95.63
2022-12-23T05:33:10.596Z,95.60
2022-12-23T05:35:37.133Z,95.39
2022-12-23T05:38:04.079Z,95.18
2022-12-23T05:40:32.031Z,95.15
2022-12-23T05:43:00.195Z,95.05
2022-12-23T05:45:26.645Z,95.09
2022-12-23T05:47:53.117Z,95.02
2022-12-23T05:50:19.494Z,95.18
2022-12-23T05:52:45.893Z,95.08
2022-12-23T05:55:12.335Z,94.99
2022-12-23T05:57:38.710Z,94.83
2022-12-23T06:00:05.550Z,94.87
2022-12-23T06:02:32.113Z,94.73
2022-12-23T06:04:58.607Z,94.81
2022-12-23T06:07:25.012Z,94.94
2022-12-23T06:09:51.490Z,94.74
2022-12-23T06:12:17.864Z,94.87
2022-12-23T06:14:44.349Z,94.67
2022-12-23T06:17:10.777Z,94.98
2022-12-23T06:19:37.160Z,95.19
2022-12-23T06:22:03.606Z,95.15
2022-12-23T06:24:30.000Z,95.23
2022-12-23T06:26:57.514Z,95.13
2022-12-23T06:29:24.911Z,95.27
2022-12-23T06:31:51.501Z,95.55
2022-12-23T06:34:18.057Z,95.36
2022-12-23T06:36:44.488Z,95.24
2022-12-23T06:39:11.205Z,95.34
2022-12-23T06:41:37.579Z,95.34
2022-12-23T06:44:04.177Z,95.33
2022-12-23T06:46:30.650Z,95.15
2022-12-23T06:48:57.137Z,95.35
2022-12-23T06:51:23.567Z,95.72
2022-12-23T06:53:49.954Z,95.77
2022-12-23T06:56:16.439Z,95.84
2022-12-23T06:58:42.869Z,95.56
2022-12-23T07:01:10.212Z,95.66
2022-12-23T07:03:36.955Z,95.43
2022-12-23T07:06:03.674Z,95.35
2022-12-23T07:08:30.093Z,95.05
2022-12-23T07:11:00.663Z,95.05
2022-12-23T07:13:27.317Z,95.33
2022-12-23T07:15:53.885Z,95.15
2022-12-23T07:18:22.786Z,95.03
2022-12-23T07:20:50.000Z,95.00
2022-12-23T07:23:16.596Z,94.95
2022-12-23T07:25:42.999Z,95.13
2022-12-23T07:28:09.373Z,95.31
2022-12-23T07:30:36.083Z,95.19
2022-12-23T07:33:02.485Z,95.62
2022-12-23T07:35:28.851Z,95.22
2022-12-23T07:37:56.107Z,95.28
2022-12-23T07:40:23.340Z,95.06
2022-12-23T07:42:50.406Z,95.35
2022-12-23T07:45:16.912Z,95.22
2022-12-23T07:47:43.565Z,95.48
2022-12-23T07:50:10.198Z,95.43
2022-12-23T07:52:37.083Z,95.66
2022-12-23T07:55:04.108Z,95.45
2022-12-23T07:57:30.543Z,95.36
2022-12-23T07:59:57.192Z,95.06
2022-12-23T08:02:25.067Z,95.24
2022-12-23T08:04:52.048Z,95.18
2022-12-23T08:07:18.513Z,95.07
2022-12-23T08:09:44.922Z,95.08
2022-12-23T08:12:11.355Z,94.95
2022-12-23T08:14:37.785Z,95.12
2022-12-23T08:17:04.297Z,95.24
2022-12-23T08:19:30.787Z,95.25
2022-12-23T08:21:57.197Z,95.15
2022-12-23T08:24:23.620Z,95.24
2022-12-23T08:26:50.003Z,94.89
2022-12-23T08:29:17.058Z,95.20
2022-12-23T08:31:43.505Z,95.00
2022-12-23T08:34:10.667Z,95.31
2022-12-23T08:36:37.067Z,95.35
2022-12-23T08:39:07.065Z,95.64
2022-12-23T08:41:35.608Z,95.82
2022-12-23T08:44:02.012Z,95.72
2022-12-23T08:46:28.621Z,95.40
2022-12-23T08:48:55.806Z,95.41
2022-12-23T08:51:24.144Z,95.07
2022-12-23T08:53:56.239Z,95.25
2022-12-23T08:56:28.445Z,95.12
2022-12-23T08:58:55.405Z,94.86
2022-12-23T09:01:24.144Z,95.09
2022-12-23T09:03:51.252Z,95.06
2022-12-23T09:06:28.672Z,94.93
2022-12-23T09:08:55.914Z,95.02
2022-12-23T09:11:23.975Z,95.22
2022-12-23T09:13:50.644Z,95.28
2022-12-23T09:16:17.589Z,95.34
2022-12-23T09:18:44.415Z,95.23
2022-12-23T09:21:14.105Z,94.95
2022-12-23T09:23:40.835Z,94.77
2022-12-23T09:26:08.233Z,95.00
2022-12-23T09:28:34.686Z,95.25
2022-12-23T09:31:08.913Z,95.22
2022-12-23T09:33:35.789Z,95.19
2022-12-23T09:36:03.209Z,95.31
2022-12-23T09:38:29.803Z,95.28
2022-12-23T09:41:05.893Z,95.25
2022-12-23T09:43:58.518Z,95.22
2022-12-23T09:46:27.449Z,95.31
2022-12-23T09:49:04.318Z,95.43
2022-12-23T09:51:30.930Z,95.46
2022-12-23T09:54:16.666Z,95.50
2022-12-23T09:57:02.582Z,95.68
2022-12-23T09:59:47.665Z,95.65
2022-12-23T10:02:23.546Z,95.93
2022-12-23T10:04:58.003Z,96.17
2022-12-23T10:07:44.218Z,96.17
2022-12-23T10:10:17.652Z,96.62
2022-12-23T10:12:47.273Z,96.51
2022-12-23T10:15:38.113Z,96.26
2022-12-23T10:18:40.207Z,96.24
2022-12-23T10:21:12.895Z,96.53
2022-12-23T10:23:42.872Z,96.59
2022-12-23T10:26:12.727Z,96.60
2022-12-23T10:28:39.232Z,97.11
2022-12-23T10:34:07.441Z,97.00
2022-12-23T10:37:01.145Z,96.60
2022-12-23T10:39:57.336Z,96.50
2022-12-23T10:42:26.561Z,96.41
2022-12-23T10:45:09.906Z,96.28
2022-12-23T10:48:06.098Z,96.25
2022-12-23T10:50:45.996Z,96.45
2022-12-23T10:53:17.107Z,96.54
2022-12-23T10:55:43.833Z,96.27
2022-12-23T10:58:17.545Z,96.37
2022-12-23T11:00:59.283Z,96.31
2022-12-23T11:03:32.792Z,96.28
2022-12-23T11:05:59.568Z,96.41
2022-12-23T11:08:27.597Z,96.37
2022-12-23T11:10:54.354Z,96.11
2022-12-23T11:13:41.709Z,95.90
2022-12-23T11:16:25.155Z,95.71
2022-12-23T11:18:54.509Z,95.90
2022-12-23T11:21:21.123Z,95.85
2022-12-23T11:23:47.784Z,95.94
2022-12-23T11:26:19.683Z,95.88
2022-12-23T11:28:51.691Z,95.81
2022-12-23T11:31:26.907Z,95.70
2022-12-23T11:33:59.252Z,95.90
2022-12-23T11:36:28.055Z,96.17
2022-12-23T11:39:04.974Z,96.19
2022-12-23T11:41:37.499Z,96.24
2022-12-23T11:44:07.461Z,96.23
2022-12-23T11:46:34.167Z,96.91
2022-12-23T11:49:21.854Z,96.88
2022-12-23T11:52:08.489Z,96.91
2022-12-23T11:54:35.125Z,96.77
2022-12-23T11:57:03.356Z,96.67
2022-12-23T11:59:35.642Z,96.41
2022-12-23T12:02:23.844Z,96.40
2022-12-23T12:04:57.185Z,96.79
2022-12-23T12:07:24.159Z,96.77
2022-12-23T12:09:51.302Z,96.85
2022-12-23T12:12:20.259Z,96.43
2022-12-23T12:14:51.984Z,96.42
2022-12-23T12:17:41.012Z,96.42
2022-12-23T12:20:27.926Z,96.46
2022-12-23T12:22:57.956Z,96.74
2022-12-23T12:25:37.965Z,96.78
2022-12-23T12:28:11.282Z,96.91
2022-12-23T12:30:42.144Z,96.67
2022-12-23T12:33:28.885Z,96.66
2022-12-23T12:36:21.867Z,96.94
2022-12-23T12:38:49.204Z,96.83
2022-12-23T12:41:34.607Z,96.65
2022-12-23T12:44:16.145Z,96.84
2022-12-23T12:46:57.783Z,97.13
2022-12-23T12:49:41.071Z,97.10
2022-12-23T12:52:22.328Z,96.85
2022-12-23T12:54:56.522Z,97.10
2022-12-23T12:57:23.851Z,96.96
2022-12-23T12:59:57.378Z,96.94
2022-12-23T13:02:29.329Z,97.11
2022-12-23T13:05:06.059Z,97.35
2022-12-23T13:07:44.582Z,96.98
2022-12-23T13:10:18.556Z,97.12
2022-12-23T13:12:56.394Z,96.78
2022-12-23T13:15:24.009Z,96.84
2022-12-23T13:18:09.262Z,96.82
2022-12-23T13:21:03.566Z,96.73
2022-12-23T13:23:44.672Z,96.69
2022-12-23T13:26:26.624Z,96.77
2022-12-23T13:29:17.615Z,96.60
2022-12-23T13:31:46.969Z,96.77
2022-12-23T13:34:23.959Z,96.66
2022-12-23T13:36:59.322Z,96.38
2022-12-23T13:39:52.071Z,96.70
2022-12-23T13:42:30.200Z,96.43
2022-12-23T13:44:57.650Z,96.88
2022-12-23T13:48:05.734Z,96.76
2022-12-23T13:50:38.178Z,97.01
2022-12-23T13:53:25.846Z,97.09
2022-12-23T13:55:57.726Z,97.29
2022-12-23T13:58:31.190Z,97.41
2022-12-23T14:00:59.066Z,97.66
2022-12-23T14:03:33.552Z,98.00
2022-12-23T14:06:00.193Z,98.06
2022-12-23T14:08:31.648Z,97.80
2022-12-23T14:11:02.609Z,98.07
2022-12-23T14:13:43.163Z,97.80
2022-12-23T14:16:12.995Z,97.88
2022-12-23T14:19:06.949Z,97.72
2022-12-23T14:22:04.354Z,97.88
2022-12-23T14:24:36.875Z,98.02
2022-12-23T14:27:25.085Z,97.84
2022-12-23T14:29:57.410Z,98.04
2022-12-23T14:32:30.567Z,97.87
2022-12-23T14:35:19.136Z,97.79
2022-12-23T14:38:04.803Z,98.10
2022-12-23T14:40:37.519Z,98.22
2022-12-23T14:43:22.097Z,97.62
2022-12-23T14:46:05.966Z,97.51
2022-12-23T14:48:35.464Z,97.69
2022-12-23T14:51:06.325Z,97.83
2022-12-23T14:53:35.580Z,97.87
2022-12-23T14:56:08.044Z,97.79
2022-12-23T14:58:39.463Z,97.75
2022-12-23T15:01:12.773Z,97.94
2022-12-23T15:03:54.538Z,97.91
2022-12-23T15:06:37.085Z,97.73
2022-12-23T15:09:05.484Z,97.70
2022-12-23T15:11:34.176Z,98.18
2022-12-23T15:14:04.496Z,98.19
2022-12-23T15:16:36.527Z,98.21
2022-12-23T15:19:21.302Z,97.94
2022-12-23T15:21:54.480Z,98.27
2022-12-23T15:24:26.821Z,98.39
2022-12-23T15:27:24.708Z,98.21
2022-12-23T15:29:44.161Z,97.92
2022-12-23T15:32:10.964Z,97.91
2022-12-23T15:34:37.650Z,97.46
2022-12-23T15:37:10.445Z,97.17
2022-12-23T15:39:40.280Z,97.13
2022-12-23T15:42:25.168Z,97.49
2022-12-23T15:44:52.475Z,97.71
2022-12-23T15:47:31.719Z,97.33
2022-12-23T15:49:59.549Z,97.09
2022-12-23T15:52:28.366Z,96.94
2022-12-23T15:55:12.253Z,97.47
2022-12-23T15:57:50.157Z,97.70
2022-12-23T16:00:29.424Z,97.65
2022-12-23T16:03:01.694Z,97.48
2022-12-23T16:05:32.348Z,97.16
2022-12-23T16:08:15.220Z,97.06
2022-12-23T16:11:00.455Z,97.50
2022-12-23T16:13:27.002Z,97.71
2022-12-23T16:15:53.508Z,97.42
2022-12-23T16:18:31.634Z,97.11
2022-12-23T16:21:02.438Z,96.65
2022-12-23T16:23:34.722Z,96.85
2022-12-23T16:26:01.919Z,97.35
2022-12-23T16:28:39.973Z,97.80
2022-12-23T16:31:07.980Z,98.22
2022-12-23T16:33:36.559Z,98.04
2022-12-23T16:36:18.404Z,97.83
2022-12-23T16:38:45.619Z,97.40
2022-12-23T16:41:12.296Z,97.47
2022-12-23T16:43:38.697Z,97.97
2022-12-23T16:46:05.707Z,97.73
2022-12-23T16:48:42.718Z,97.48
2022-12-23T16:51:12.797Z,97.53
2022-12-23T16:53:39.241Z,97.54
2022-12-23T16:56:12.713Z,97.35
2022-12-23T16:58:39.138Z,97.52
2022-12-23T17:01:05.735Z,97.61
2022-12-23T17:03:34.766Z,97.34
2022-12-23T17:06:01.190Z,97.33
2022-12-23T17:08:27.593Z,97.99
2022-12-23T17:10:54.074Z,97.77
2022-12-23T17:13:21.549Z,97.53
2022-12-23T17:15:47.938Z,97.24
2022-12-23T17:18:18.609Z,97.16
2022-12-23T17:20:45.738Z,96.92
2022-12-23T17:23:26.748Z,96.67
2022-12-23T17:25:53.593Z,96.62
2022-12-23T17:28:20.294Z,96.53
2022-12-23T17:30:46.774Z,96.60
2022-12-23T17:33:16.846Z,96.97
2022-12-23T17:35:43.422Z,96.78
2022-12-23T17:38:13.534Z,97.13
2022-12-23T17:40:40.259Z,97.22
2022-12-23T17:43:06.792Z,97.14
2022-12-23T17:45:33.424Z,96.97
2022-12-23T17:47:59.867Z,97.09
2022-12-23T17:50:33.618Z,96.91
2022-12-23T17:52:59.989Z,97.20
2022-12-23T17:55:27.009Z,97.01
2022-12-23T17:57:53.595Z,96.98
2022-12-23T18:00:29.759Z,97.38
2022-12-23T18:03:00.183Z,97.38
2022-12-23T18:05:29.349Z,97.54
2022-12-23T18:07:58.216Z,97.40
2022-12-23T18:10:30.928Z,97.64
2022-12-23T18:13:00.388Z,98.08
2022-12-23T18:15:34.387Z,98.24
2022-12-23T18:18:00.771Z,98.10
2022-12-23T18:20:27.321Z,98.46
2022-12-23T18:22:54.643Z,98.47
2022-12-23T18:25:25.911Z,98.10
2022-12-23T18:27:53.780Z,98.01
2022-12-23T18:30:21.404Z,97.96
2022-12-23T18:32:48.274Z,98.23
2022-12-23T18:35:24.937Z,97.69
2022-12-23T18:37:51.502Z,97.82
2022-12-23T18:40:18.042Z,97.86
2022-12-23T18:42:44.416Z,97.99
2022-12-23T18:45:32.163Z,97.77
2022-12-23T18:47:58.913Z,97.88
2022-12-23T18:50:25.741Z,98.09
2022-12-23T18:52:52.645Z,98.19
2022-12-23T18:55:20.186Z,98.37
2022-12-23T18:57:47.432Z,98.44
2022-12-23T19:00:16.829Z,98.48
2022-12-23T19:02:43.353Z,98.65
2022-12-23T19:05:16.547Z,98.63
2022-12-23T19:07:43.013Z,98.47
2022-12-23T19:10:10.391Z,98.28
2022-12-23T19:12:36.758Z,97.95
2022-12-23T19:15:03.265Z,98.13
2022-12-23T19:17:29.661Z,97.96
2022-12-23T19:19:56.063Z,98.32
2022-12-23T19:22:24.185Z,98.40
2022-12-23T19:25:04.429Z,98.67
2022-12-23T19:27:32.129Z,98.58
2022-12-23T19:29:59.300Z,98.39
2022-12-23T19:32:25.833Z,98.78
2022-12-23T19:34:52.239Z,98.82
2022-12-23T19:37:18.609Z,98.66
2022-12-23T19:39:45.058Z,98.26
2022-12-23T19:42:11.495Z,98.44
2022-12-23T19:44:37.868Z,98.31
2022-12-23T19:47:04.930Z,98.32
2022-12-23T19:49:31.501Z,98.53
2022-12-23T19:51:57.956Z,98.59
2022-12-23T19:54:24.417Z,98.43
2022-12-23T19:56:51.337Z,98.68
2022-12-23T19:59:18.372Z,98.47
2022-12-23T20:01:44.856Z,98.24
2022-12-23T20:04:11.728Z,98.18
2022-12-23T20:06:38.720Z,98.35
2022-12-23T20:09:06.523Z,98.25
2022-12-23T20:11:35.558Z,98.26
2022-12-23T20:14:03.111Z,98.27
2022-12-23T20:16:30.267Z,98.00
2022-12-23T20:18:57.431Z,97.94
2022-12-23T20:21:24.424Z,97.83
2022-12-23T20:23:51.303Z,97.63
2022-12-23T20:26:19.140Z,97.68
2022-12-23T20:28:45.746Z,97.89
2022-12-23T20:31:19.010Z,97.71
2022-12-23T20:33:46.577Z,97.79
2022-12-23T20:36:14.658Z,97.64
2022-12-23T20:38:43.276Z,97.59
2022-12-23T20:41:12.904Z,97.40
2022-12-23T20:43:39.611Z,97.52
2022-12-23T20:46:07.186Z,97.36
2022-12-23T20:48:34.747Z,97.37
2022-12-23T20:51:05.452Z,97.70
2022-12-23T20:53:31.877Z,97.77
2022-12-23T20:56:06.493Z,97.63
2022-12-23T20:58:51.638Z,97.46
2022-12-23T21:01:18.064Z,97.04
2022-12-23T21:03:44.542Z,97.13
2022-12-23T21:06:10.913Z,96.65
2022-12-23T21:08:37.748Z,96.36
2022-12-23T21:11:04.889Z,96.05
2022-12-23T21:13:31.441Z,95.61
2022-12-23T21:16:05.706Z,95.28
2022-12-23T21:18:32.629Z,95.05
2022-12-23T21:21:04.561Z,94.57
2022-12-23T21:23:31.866Z,94.44
2022-12-23T21:26:14.942Z,93.70
2022-12-23T21:28:42.907Z,93.75
2022-12-23T21:31:09.672Z,93.67
2022-12-23T21:33:40.723Z,93.52
2022-12-23T21:36:07.871Z,93.35
2022-12-23T21:38:36.923Z,92.49
2022-12-23T21:41:05.782Z,92.27
2022-12-23T21:43:32.382Z,92.50
2022-12-23T21:46:04.393Z,92.56
2022-12-23T21:48:32.538Z,92.71
2022-12-23T21:51:06.368Z,93.08
2022-12-23T21:53:34.196Z,93.05
2022-12-23T21:56:05.253Z,92.93
2022-12-23T21:58:32.537Z,92.39
2022-12-23T22:00:59.357Z,92.13
2022-12-23T22:03:27.252Z,92.13
2022-12-23T22:05:53.837Z,91.68
2022-12-23T22:08:20.221Z,91.68
2022-12-23T22:10:47.292Z,92.50
2022-12-23T22:13:13.748Z,93.30
2022-12-23T22:15:41.841Z,93.91
2022-12-23T22:18:08.270Z,94.50
2022-12-23T22:20:39.819Z,94.97
2022-12-23T22:23:10.706Z,94.52
2022-12-23T22:25:37.144Z,93.99
2022-12-23T22:28:03.802Z,94.23
2022-12-23T22:30:30.238Z,93.89
2022-12-23T22:32:56.697Z,93.34
2022-12-23T22:35:23.137Z,93.50
2022-12-23T22:37:49.548Z,93.65
2022-12-23T22:40:16.091Z,92.93
2022-12-23T22:42:42.504Z,92.96
2022-12-23T22:45:09.346Z,92.49
2022-12-23T22:47:35.846Z,92.73
2022-12-23T22:50:02.306Z,92.49
2022-12-23T22:52:28.678Z,92.18
2022-12-23T22:54:55.145Z,92.28
2022-12-23T22:57:21.583Z,92.09
2022-12-23T22:59:48.119Z,92.01
2022-12-23T23:02:17.236Z,91.86
2022-12-23T23:04:43.688Z,91.76
2022-12-23T23:07:10.102Z,91.88
2022-12-23T23:09:37.077Z,91.39
2022-12-23T23:12:03.592Z,91.12
2022-12-23T23:14:49.992Z,90.53
2022-12-23T23:17:16.370Z,90.04
2022-12-23T23:19:42.827Z,89.89
2022-12-23T23:22:09.213Z,89.73
2022-12-23T23:24:35.584Z,89.49
2022-12-23T23:27:02.047Z,89.13
2022-12-23T23:29:28.437Z,88.59
2022-12-23T23:31:54.865Z,88.31
2022-12-23T23:34:21.436Z,88.21
2022-12-23T23:36:47.912Z,88.02
2022-12-23T23:39:14.473Z,88.19
2022-12-23T23:41:41.268Z,88.04
2022-12-23T23:44:07.902Z,88.02
2022-12-23T23:46:34.686Z,88.31
2022-12-23T23:49:01.172Z,88.00
2022-12-23T23:51:28.188Z,87.74
2022-12-23T23:53:54.659Z,87.79
2022-12-23T23:56:25.305Z,88.25
2022-12-23T23:58:52.777Z,88.32
